sensor_id;sensor_type;location;lat;lon;timestamp;P1;durP1;ratioP1;P2;durP2;ratioP2
34805;SDS011;65084;42.196;25.326;2023-05-02T00:01:19;3.70;;;2.70;;
34805;SDS011;65084;42.196;25.326;2023-05-02T00:03:47;3.13;;;2.50;;
34805;SDS011;65084;42.196;25.326;2023-05-02T00:06:14;5.28;;;2.53;;
34805;SDS011;65084;42.196;25.326;2023-05-02T00:08:42;3.35;;;2.20;;
34805;SDS011;65084;42.196;25.326;2023-05-02T00:11:09;5.15;;;2.83;;
34805;SDS011;65084;42.196;25.326;2023-05-02T00:13:36;6.32;;;2.83;;
34805;SDS011;65084;42.196;25.326;2023-05-02T00:16:04;5.80;;;2.35;;
34805;SDS011;65084;42.196;25.326;2023-05-02T00:18:33;5.78;;;3.05;;
34805;SDS011;65084;42.196;25.326;2023-05-02T00:21:00;5.30;;;2.47;;
34805;SDS011;65084;42.196;25.326;2023-05-02T00:23:27;6.13;;;2.70;;
34805;SDS011;65084;42.196;25.326;2023-05-02T00:25:54;5.45;;;2.67;;
34805;SDS011;65084;42.196;25.326;2023-05-02T00:28:22;4.55;;;2.88;;
34805;SDS011;65084;42.196;25.326;2023-05-02T00:30:50;4.07;;;2.58;;
34805;SDS011;65084;42.196;25.326;2023-05-02T00:33:18;5.30;;;2.65;;
34805;SDS011;65084;42.196;25.326;2023-05-02T00:35:46;6.88;;;2.95;;
34805;SDS011;65084;42.196;25.326;2023-05-02T00:38:14;5.57;;;2.97;;
34805;SDS011;65084;42.196;25.326;2023-05-02T00:40:41;6.38;;;2.78;;
34805;SDS011;65084;42.196;25.326;2023-05-02T00:43:10;5.82;;;3.10;;
34805;SDS011;65084;42.196;25.326;2023-05-02T00:45:37;3.25;;;2.92;;
34805;SDS011;65084;42.196;25.326;2023-05-02T00:48:06;2.60;;;2.30;;
34805;SDS011;65084;42.196;25.326;2023-05-02T00:50:34;4.63;;;2.42;;
34805;SDS011;65084;42.196;25.326;2023-05-02T00:53:03;3.67;;;2.45;;
34805;SDS011;65084;42.196;25.326;2023-05-02T00:55:31;5.60;;;2.33;;
34805;SDS011;65084;42.196;25.326;2023-05-02T00:57:59;7.97;;;2.65;;
34805;SDS011;65084;42.196;25.326;2023-05-02T01:03:11;5.25;;;2.50;;
34805;SDS011;65084;42.196;25.326;2023-05-02T01:05:43;4.03;;;2.85;;
34805;SDS011;65084;42.196;25.326;2023-05-02T01:08:15;5.55;;;2.80;;
34805;SDS011;65084;42.196;25.326;2023-05-02T01:10:47;5.15;;;2.70;;
34805;SDS011;65084;42.196;25.326;2023-05-02T01:13:19;6.68;;;2.78;;
34805;SDS011;65084;42.196;25.326;2023-05-02T01:15:47;5.20;;;2.72;;
34805;SDS011;65084;42.196;25.326;2023-05-02T01:18:15;8.98;;;2.85;;
34805;SDS011;65084;42.196;25.326;2023-05-02T01:20:44;2.92;;;2.30;;
34805;SDS011;65084;42.196;25.326;2023-05-02T01:23:15;6.53;;;2.70;;
34805;SDS011;65084;42.196;25.326;2023-05-02T01:25:48;7.65;;;2.50;;
34805;SDS011;65084;42.196;25.326;2023-05-02T01:28:20;7.57;;;2.33;;
34805;SDS011;65084;42.196;25.326;2023-05-02T01:30:55;4.10;;;2.45;;
34805;SDS011;65084;42.196;25.326;2023-05-02T01:33:23;4.65;;;2.90;;
34805;SDS011;65084;42.196;25.326;2023-05-02T01:35:51;4.18;;;2.55;;
34805;SDS011;65084;42.196;25.326;2023-05-02T01:38:19;6.72;;;2.58;;
34805;SDS011;65084;42.196;25.326;2023-05-02T01:40:49;7.32;;;2.95;;
34805;SDS011;65084;42.196;25.326;2023-05-02T01:43:17;3.38;;;2.30;;
34805;SDS011;65084;42.196;25.326;2023-05-02T01:45:47;3.97;;;2.38;;
34805;SDS011;65084;42.196;25.326;2023-05-02T01:48:17;7.75;;;2.42;;
34805;SDS011;65084;42.196;25.326;2023-05-02T01:50:45;4.60;;;2.28;;
34805;SDS011;65084;42.196;25.326;2023-05-02T01:53:14;5.38;;;2.53;;
34805;SDS011;65084;42.196;25.326;2023-05-02T01:55:42;3.05;;;2.45;;
34805;SDS011;65084;42.196;25.326;2023-05-02T01:58:10;3.88;;;2.00;;
34805;SDS011;65084;42.196;25.326;2023-05-02T02:00:38;3.45;;;2.17;;
34805;SDS011;65084;42.196;25.326;2023-05-02T02:03:06;4.57;;;2.40;;
34805;SDS011;65084;42.196;25.326;2023-05-02T02:05:35;3.92;;;2.10;;
34805;SDS011;65084;42.196;25.326;2023-05-02T02:08:03;4.80;;;2.47;;
34805;SDS011;65084;42.196;25.326;2023-05-02T02:10:31;7.20;;;2.17;;
34805;SDS011;65084;42.196;25.326;2023-05-02T02:13:03;2.47;;;2.25;;
34805;SDS011;65084;42.196;25.326;2023-05-02T02:15:33;7.50;;;2.42;;
34805;SDS011;65084;42.196;25.326;2023-05-02T02:18:01;4.75;;;2.35;;
34805;SDS011;65084;42.196;25.326;2023-05-02T02:20:31;3.50;;;2.35;;
34805;SDS011;65084;42.196;25.326;2023-05-02T02:23:00;3.38;;;1.98;;
34805;SDS011;65084;42.196;25.326;2023-05-02T02:25:29;3.47;;;2.22;;
34805;SDS011;65084;42.196;25.326;2023-05-02T02:27:57;7.18;;;2.20;;
34805;SDS011;65084;42.196;25.326;2023-05-02T02:30:24;4.10;;;2.40;;
34805;SDS011;65084;42.196;25.326;2023-05-02T02:32:51;5.57;;;2.30;;
34805;SDS011;65084;42.196;25.326;2023-05-02T02:35:19;2.33;;;2.10;;
34805;SDS011;65084;42.196;25.326;2023-05-02T02:37:47;5.18;;;2.10;;
34805;SDS011;65084;42.196;25.326;2023-05-02T02:40:22;4.35;;;2.35;;
34805;SDS011;65084;42.196;25.326;2023-05-02T02:42:51;3.67;;;1.95;;
34805;SDS011;65084;42.196;25.326;2023-05-02T02:45:23;6.13;;;2.15;;
34805;SDS011;65084;42.196;25.326;2023-05-02T02:47:55;2.88;;;1.98;;
34805;SDS011;65084;42.196;25.326;2023-05-02T02:50:25;16.23;;;2.78;;
34805;SDS011;65084;42.196;25.326;2023-05-02T02:52:54;2.85;;;2.10;;
34805;SDS011;65084;42.196;25.326;2023-05-02T02:55:26;8.65;;;2.40;;
34805;SDS011;65084;42.196;25.326;2023-05-02T02:57:57;2.10;;;1.90;;
34805;SDS011;65084;42.196;25.326;2023-05-02T03:00:26;2.92;;;2.35;;
34805;SDS011;65084;42.196;25.326;2023-05-02T03:02:54;5.35;;;2.50;;
34805;SDS011;65084;42.196;25.326;2023-05-02T03:05:21;3.75;;;2.22;;
34805;SDS011;65084;42.196;25.326;2023-05-02T03:07:49;3.83;;;2.17;;
34805;SDS011;65084;42.196;25.326;2023-05-02T03:10:16;3.28;;;2.22;;
34805;SDS011;65084;42.196;25.326;2023-05-02T03:12:45;5.80;;;2.55;;
34805;SDS011;65084;42.196;25.326;2023-05-02T03:15:22;3.08;;;2.33;;
34805;SDS011;65084;42.196;25.326;2023-05-02T03:17:51;7.68;;;2.53;;
34805;SDS011;65084;42.196;25.326;2023-05-02T03:20:19;10.50;;;2.40;;
34805;SDS011;65084;42.196;25.326;2023-05-02T03:22:46;3.17;;;2.25;;
34805;SDS011;65084;42.196;25.326;2023-05-02T03:25:13;3.40;;;2.22;;
34805;SDS011;65084;42.196;25.326;2023-05-02T03:27:41;3.33;;;2.30;;
34805;SDS011;65084;42.196;25.326;2023-05-02T03:30:10;23.73;;;3.50;;
34805;SDS011;65084;42.196;25.326;2023-05-02T03:32:37;22.30;;;2.70;;
34805;SDS011;65084;42.196;25.326;2023-05-02T03:35:05;24.10;;;3.45;;
34805;SDS011;65084;42.196;25.326;2023-05-02T03:37:32;6.68;;;2.30;;
34805;SDS011;65084;42.196;25.326;2023-05-02T03:40:00;5.45;;;2.53;;
34805;SDS011;65084;42.196;25.326;2023-05-02T03:42:27;3.05;;;2.67;;
34805;SDS011;65084;42.196;25.326;2023-05-02T03:44:55;3.17;;;2.10;;
34805;SDS011;65084;42.196;25.326;2023-05-02T03:47:23;7.18;;;2.30;;
34805;SDS011;65084;42.196;25.326;2023-05-02T03:49:51;6.38;;;2.08;;
34805;SDS011;65084;42.196;25.326;2023-05-02T03:52:18;4.35;;;1.80;;
34805;SDS011;65084;42.196;25.326;2023-05-02T03:54:45;4.18;;;2.20;;
34805;SDS011;65084;42.196;25.326;2023-05-02T03:57:12;2.80;;;1.77;;
34805;SDS011;65084;42.196;25.326;2023-05-02T03:59:40;6.68;;;2.50;;
34805;SDS011;65084;42.196;25.326;2023-05-02T04:02:09;11.82;;;2.30;;
34805;SDS011;65084;42.196;25.326;2023-05-02T04:04:39;4.30;;;2.22;;
34805;SDS011;65084;42.196;25.326;2023-05-02T04:07:07;7.45;;;2.45;;
34805;SDS011;65084;42.196;25.326;2023-05-02T04:09:39;6.18;;;2.00;;
34805;SDS011;65084;42.196;25.326;2023-05-02T04:12:07;5.43;;;2.28;;
34805;SDS011;65084;42.196;25.326;2023-05-02T04:14:34;6.68;;;1.88;;
34805;SDS011;65084;42.196;25.326;2023-05-02T04:17:01;2.78;;;2.13;;
34805;SDS011;65084;42.196;25.326;2023-05-02T04:19:29;5.95;;;2.53;;
34805;SDS011;65084;42.196;25.326;2023-05-02T04:21:57;6.82;;;2.22;;
34805;SDS011;65084;42.196;25.326;2023-05-02T04:24:25;6.13;;;1.60;;
34805;SDS011;65084;42.196;25.326;2023-05-02T04:26:52;3.00;;;1.90;;
34805;SDS011;65084;42.196;25.326;2023-05-02T04:29:19;3.63;;;2.30;;
34805;SDS011;65084;42.196;25.326;2023-05-02T04:31:46;6.65;;;2.38;;
34805;SDS011;65084;42.196;25.326;2023-05-02T04:34:14;3.40;;;1.95;;
34805;SDS011;65084;42.196;25.326;2023-05-02T04:36:43;2.38;;;1.73;;
34805;SDS011;65084;42.196;25.326;2023-05-02T04:39:12;8.35;;;2.00;;
34805;SDS011;65084;42.196;25.326;2023-05-02T04:41:39;7.53;;;3.75;;
34805;SDS011;65084;42.196;25.326;2023-05-02T04:44:07;2.42;;;1.80;;
34805;SDS011;65084;42.196;25.326;2023-05-02T04:46:34;8.13;;;2.10;;
34805;SDS011;65084;42.196;25.326;2023-05-02T04:49:02;7.18;;;2.30;;
34805;SDS011;65084;42.196;25.326;2023-05-02T04:51:29;3.85;;;2.22;;
34805;SDS011;65084;42.196;25.326;2023-05-02T04:53:56;10.93;;;2.65;;
34805;SDS011;65084;42.196;25.326;2023-05-02T04:56:25;9.60;;;1.88;;
34805;SDS011;65084;42.196;25.326;2023-05-02T04:58:52;2.45;;;1.67;;
34805;SDS011;65084;42.196;25.326;2023-05-02T05:01:20;6.25;;;1.90;;
34805;SDS011;65084;42.196;25.326;2023-05-02T05:03:48;4.00;;;2.00;;
34805;SDS011;65084;42.196;25.326;2023-05-02T05:06:15;4.03;;;1.58;;
34805;SDS011;65084;42.196;25.326;2023-05-02T05:08:43;4.40;;;1.70;;
34805;SDS011;65084;42.196;25.326;2023-05-02T05:11:10;4.60;;;2.33;;
34805;SDS011;65084;42.196;25.326;2023-05-02T05:13:40;2.13;;;1.80;;
34805;SDS011;65084;42.196;25.326;2023-05-02T05:16:07;3.58;;;1.88;;
34805;SDS011;65084;42.196;25.326;2023-05-02T05:18:35;3.33;;;1.98;;
34805;SDS011;65084;42.196;25.326;2023-05-02T05:21:05;2.63;;;2.05;;
34805;SDS011;65084;42.196;25.326;2023-05-02T05:23:32;9.05;;;2.30;;
34805;SDS011;65084;42.196;25.326;2023-05-02T05:26:07;4.80;;;2.00;;
34805;SDS011;65084;42.196;25.326;2023-05-02T05:28:35;6.57;;;2.57;;
34805;SDS011;65084;42.196;25.326;2023-05-02T05:31:07;6.03;;;2.08;;
34805;SDS011;65084;42.196;25.326;2023-05-02T05:33:35;2.47;;;1.60;;
34805;SDS011;65084;42.196;25.326;2023-05-02T05:36:03;2.60;;;1.92;;
34805;SDS011;65084;42.196;25.326;2023-05-02T05:38:30;6.78;;;1.77;;
34805;SDS011;65084;42.196;25.326;2023-05-02T05:40:57;4.65;;;2.05;;
34805;SDS011;65084;42.196;25.326;2023-05-02T05:43:25;7.22;;;2.25;;
34805;SDS011;65084;42.196;25.326;2023-05-02T05:45:53;7.82;;;1.88;;
34805;SDS011;65084;42.196;25.326;2023-05-02T05:48:22;7.70;;;2.47;;
34805;SDS011;65084;42.196;25.326;2023-05-02T05:50:49;4.78;;;1.88;;
34805;SDS011;65084;42.196;25.326;2023-05-02T05:53:17;1.58;;;1.48;;
34805;SDS011;65084;42.196;25.326;2023-05-02T05:55:45;6.63;;;1.70;;
34805;SDS011;65084;42.196;25.326;2023-05-02T05:58:12;10.70;;;1.67;;
34805;SDS011;65084;42.196;25.326;2023-05-02T06:00:39;5.03;;;1.90;;
34805;SDS011;65084;42.196;25.326;2023-05-02T06:03:07;1.85;;;1.67;;
34805;SDS011;65084;42.196;25.326;2023-05-02T06:05:35;2.85;;;1.70;;
34805;SDS011;65084;42.196;25.326;2023-05-02T06:08:03;8.55;;;1.75;;
34805;SDS011;65084;42.196;25.326;2023-05-02T06:10:30;3.03;;;1.80;;
34805;SDS011;65084;42.196;25.326;2023-05-02T06:12:58;2.60;;;1.70;;
34805;SDS011;65084;42.196;25.326;2023-05-02T06:15:25;3.00;;;1.42;;
34805;SDS011;65084;42.196;25.326;2023-05-02T06:17:52;4.70;;;1.35;;
34805;SDS011;65084;42.196;25.326;2023-05-02T06:20:20;3.13;;;1.77;;
34805;SDS011;65084;42.196;25.326;2023-05-02T06:22:48;2.45;;;1.80;;
34805;SDS011;65084;42.196;25.326;2023-05-02T06:25:16;3.63;;;1.50;;
34805;SDS011;65084;42.196;25.326;2023-05-02T06:27:43;3.50;;;1.67;;
34805;SDS011;65084;42.196;25.326;2023-05-02T06:30:11;4.63;;;1.60;;
34805;SDS011;65084;42.196;25.326;2023-05-02T06:32:38;3.25;;;1.58;;
34805;SDS011;65084;42.196;25.326;2023-05-02T06:35:06;2.08;;;1.67;;
34805;SDS011;65084;42.196;25.326;2023-05-02T06:37:34;2.03;;;1.38;;
34805;SDS011;65084;42.196;25.326;2023-05-02T06:40:02;5.47;;;1.95;;
34805;SDS011;65084;42.196;25.326;2023-05-02T06:42:30;6.70;;;1.88;;
34805;SDS011;65084;42.196;25.326;2023-05-02T06:44:57;7.63;;;1.65;;
34805;SDS011;65084;42.196;25.326;2023-05-02T06:47:25;4.20;;;1.70;;
34805;SDS011;65084;42.196;25.326;2023-05-02T06:49:52;4.63;;;1.98;;
34805;SDS011;65084;42.196;25.326;2023-05-02T06:52:20;2.85;;;1.55;;
34805;SDS011;65084;42.196;25.326;2023-05-02T06:54:47;2.40;;;1.50;;
34805;SDS011;65084;42.196;25.326;2023-05-02T06:57:16;3.83;;;1.63;;
34805;SDS011;65084;42.196;25.326;2023-05-02T06:59:43;4.72;;;1.60;;
34805;SDS011;65084;42.196;25.326;2023-05-02T07:02:10;2.63;;;1.58;;
34805;SDS011;65084;42.196;25.326;2023-05-02T07:04:37;1.30;;;1.20;;
34805;SDS011;65084;42.196;25.326;2023-05-02T07:07:05;4.18;;;1.40;;
34805;SDS011;65084;42.196;25.326;2023-05-02T07:09:32;1.92;;;1.42;;
34805;SDS011;65084;42.196;25.326;2023-05-02T07:11:59;2.33;;;1.50;;
34805;SDS011;65084;42.196;25.326;2023-05-02T07:14:29;11.85;;;1.60;;
34805;SDS011;65084;42.196;25.326;2023-05-02T07:16:56;4.50;;;1.70;;
34805;SDS011;65084;42.196;25.326;2023-05-02T07:19:23;5.63;;;1.98;;
34805;SDS011;65084;42.196;25.326;2023-05-02T07:21:50;7.68;;;1.70;;
34805;SDS011;65084;42.196;25.326;2023-05-02T07:24:18;7.25;;;1.52;;
34805;SDS011;65084;42.196;25.326;2023-05-02T07:26:45;5.15;;;1.33;;
34805;SDS011;65084;42.196;25.326;2023-05-02T07:29:12;1.45;;;1.27;;
34805;SDS011;65084;42.196;25.326;2023-05-02T07:31:41;6.22;;;1.88;;
34805;SDS011;65084;42.196;25.326;2023-05-02T07:34:08;2.60;;;1.77;;
34805;SDS011;65084;42.196;25.326;2023-05-02T07:36:35;4.50;;;1.65;;
34805;SDS011;65084;42.196;25.326;2023-05-02T07:39:03;1.90;;;1.67;;
34805;SDS011;65084;42.196;25.326;2023-05-02T07:41:30;7.65;;;2.00;;
34805;SDS011;65084;42.196;25.326;2023-05-02T07:43:57;4.97;;;1.50;;
34805;SDS011;65084;42.196;25.326;2023-05-02T07:46:24;4.00;;;1.73;;
34805;SDS011;65084;42.196;25.326;2023-05-02T07:48:53;3.35;;;2.40;;
34805;SDS011;65084;42.196;25.326;2023-05-02T07:51:20;11.23;;;1.85;;
34805;SDS011;65084;42.196;25.326;2023-05-02T07:53:48;3.75;;;1.65;;
34805;SDS011;65084;42.196;25.326;2023-05-02T07:56:17;5.13;;;1.48;;
34805;SDS011;65084;42.196;25.326;2023-05-02T07:58:46;13.52;;;1.60;;
34805;SDS011;65084;42.196;25.326;2023-05-02T08:01:14;7.30;;;1.33;;
34805;SDS011;65084;42.196;25.326;2023-05-02T08:03:41;6.82;;;2.28;;
34805;SDS011;65084;42.196;25.326;2023-05-02T08:06:10;7.40;;;1.70;;
34805;SDS011;65084;42.196;25.326;2023-05-02T08:08:37;4.20;;;1.80;;
34805;SDS011;65084;42.196;25.326;2023-05-02T08:11:04;7.13;;;1.90;;
34805;SDS011;65084;42.196;25.326;2023-05-02T08:13:32;2.90;;;1.55;;
34805;SDS011;65084;42.196;25.326;2023-05-02T08:15:59;3.95;;;1.38;;
34805;SDS011;65084;42.196;25.326;2023-05-02T08:18:27;5.07;;;1.58;;
34805;SDS011;65084;42.196;25.326;2023-05-02T08:20:54;3.47;;;1.70;;
34805;SDS011;65084;42.196;25.326;2023-05-02T08:23:24;3.25;;;1.60;;
34805;SDS011;65084;42.196;25.326;2023-05-02T08:25:51;2.15;;;1.80;;
34805;SDS011;65084;42.196;25.326;2023-05-02T08:28:18;2.60;;;2.00;;
34805;SDS011;65084;42.196;25.326;2023-05-02T08:30:45;5.43;;;1.63;;
34805;SDS011;65084;42.196;25.326;2023-05-02T08:33:13;4.38;;;1.48;;
34805;SDS011;65084;42.196;25.326;2023-05-02T08:35:40;6.82;;;2.10;;
34805;SDS011;65084;42.196;25.326;2023-05-02T08:38:07;12.93;;;1.90;;
34805;SDS011;65084;42.196;25.326;2023-05-02T08:40:36;1.90;;;1.63;;
34805;SDS011;65084;42.196;25.326;2023-05-02T08:43:04;4.18;;;1.83;;
34805;SDS011;65084;42.196;25.326;2023-05-02T08:45:33;7.57;;;1.92;;
34805;SDS011;65084;42.196;25.326;2023-05-02T08:48:04;4.22;;;1.80;;
34805;SDS011;65084;42.196;25.326;2023-05-02T08:50:35;10.85;;;1.90;;
34805;SDS011;65084;42.196;25.326;2023-05-02T08:53:03;8.38;;;2.70;;
34805;SDS011;65084;42.196;25.326;2023-05-02T08:55:31;9.30;;;2.15;;
34805;SDS011;65084;42.196;25.326;2023-05-02T08:58:00;13.40;;;2.65;;
34805;SDS011;65084;42.196;25.326;2023-05-02T09:00:29;5.15;;;1.77;;
34805;SDS011;65084;42.196;25.326;2023-05-02T09:03:01;3.40;;;2.17;;
34805;SDS011;65084;42.196;25.326;2023-05-02T09:05:30;3.38;;;1.80;;
34805;SDS011;65084;42.196;25.326;2023-05-02T09:07:59;3.53;;;1.88;;
34805;SDS011;65084;42.196;25.326;2023-05-02T09:10:27;8.40;;;1.80;;
34805;SDS011;65084;42.196;25.326;2023-05-02T09:12:54;3.40;;;1.70;;
34805;SDS011;65084;42.196;25.326;2023-05-02T09:15:23;6.47;;;1.90;;
34805;SDS011;65084;42.196;25.326;2023-05-02T09:17:50;7.43;;;1.88;;
34805;SDS011;65084;42.196;25.326;2023-05-02T09:20:18;2.05;;;1.77;;
34805;SDS011;65084;42.196;25.326;2023-05-02T09:22:48;3.83;;;1.60;;
34805;SDS011;65084;42.196;25.326;2023-05-02T09:25:15;4.38;;;2.00;;
34805;SDS011;65084;42.196;25.326;2023-05-02T09:27:49;3.83;;;2.08;;
34805;SDS011;65084;42.196;25.326;2023-05-02T09:30:17;5.47;;;1.75;;
34805;SDS011;65084;42.196;25.326;2023-05-02T09:32:47;4.65;;;1.60;;
34805;SDS011;65084;42.196;25.326;2023-05-02T09:35:15;3.70;;;2.42;;
34805;SDS011;65084;42.196;25.326;2023-05-02T09:37:49;4.82;;;1.80;;
34805;SDS011;65084;42.196;25.326;2023-05-02T09:40:16;1.90;;;1.60;;
34805;SDS011;65084;42.196;25.326;2023-05-02T09:42:44;6.03;;;2.15;;
34805;SDS011;65084;42.196;25.326;2023-05-02T09:45:21;4.97;;;1.83;;
34805;SDS011;65084;42.196;25.326;2023-05-02T09:47:50;2.90;;;1.77;;
34805;SDS011;65084;42.196;25.326;2023-05-02T09:50:34;4.10;;;1.90;;
34805;SDS011;65084;42.196;25.326;2023-05-02T09:53:05;3.13;;;1.63;;
34805;SDS011;65084;42.196;25.326;2023-05-02T09:55:32;5.07;;;1.70;;
34805;SDS011;65084;42.196;25.326;2023-05-02T09:57:59;3.83;;;1.90;;
34805;SDS011;65084;42.196;25.326;2023-05-02T10:00:37;3.13;;;2.20;;
34805;SDS011;65084;42.196;25.326;2023-05-02T10:03:06;10.23;;;2.17;;
34805;SDS011;65084;42.196;25.326;2023-05-02T10:05:35;41.55;;;4.40;;
34805;SDS011;65084;42.196;25.326;2023-05-02T10:08:03;81.45;;;10.70;;
34805;SDS011;65084;42.196;25.326;2023-05-02T10:10:32;96.05;;;13.98;;
34805;SDS011;65084;42.196;25.326;2023-05-02T10:12:59;113.00;;;16.33;;
34805;SDS011;65084;42.196;25.326;2023-05-02T10:15:27;67.40;;;12.73;;
34805;SDS011;65084;42.196;25.326;2023-05-02T10:17:57;147.85;;;31.52;;
34805;SDS011;65084;42.196;25.326;2023-05-02T10:20:27;403.67;;;57.22;;
34805;SDS011;65084;42.196;25.326;2023-05-02T10:22:55;100.90;;;17.55;;
34805;SDS011;65084;42.196;25.326;2023-05-02T10:25:25;24.90;;;5.82;;
34805;SDS011;65084;42.196;25.326;2023-05-02T10:27:53;7.20;;;4.30;;
34805;SDS011;65084;42.196;25.326;2023-05-02T10:30:22;93.78;;;14.82;;
34805;SDS011;65084;42.196;25.326;2023-05-02T10:32:50;316.17;;;70.18;;
34805;SDS011;65084;42.196;25.326;2023-05-02T10:35:18;215.30;;;92.35;;
34805;SDS011;65084;42.196;25.326;2023-05-02T10:37:47;108.75;;;74.55;;
34805;SDS011;65084;42.196;25.326;2023-05-02T10:40:15;268.80;;;208.30;;
34805;SDS011;65084;42.196;25.326;2023-05-02T10:42:43;40.95;;;29.45;;
34805;SDS011;65084;42.196;25.326;2023-05-02T10:45:12;3.67;;;3.38;;
34805;SDS011;65084;42.196;25.326;2023-05-02T10:47:40;8.48;;;1.38;;
34805;SDS011;65084;42.196;25.326;2023-05-02T10:50:07;1.45;;;1.17;;
34805;SDS011;65084;42.196;25.326;2023-05-02T10:52:35;4.95;;;1.35;;
34805;SDS011;65084;42.196;25.326;2023-05-02T10:55:13;1.65;;;1.10;;
34805;SDS011;65084;42.196;25.326;2023-05-02T11:00:24;3.58;;;1.00;;
34805;SDS011;65084;42.196;25.326;2023-05-02T11:02:51;12.52;;;1.00;;
34805;SDS011;65084;42.196;25.326;2023-05-02T11:05:20;6.90;;;1.75;;
34805;SDS011;65084;42.196;25.326;2023-05-02T11:07:48;12.48;;;1.35;;
34805;SDS011;65084;42.196;25.326;2023-05-02T11:10:26;2.22;;;0.88;;
34805;SDS011;65084;42.196;25.326;2023-05-02T11:12:54;16.92;;;1.10;;
34805;SDS011;65084;42.196;25.326;2023-05-02T11:18:16;1.85;;;0.82;;
34805;SDS011;65084;42.196;25.326;2023-05-02T11:20:43;0.88;;;0.80;;
34805;SDS011;65084;42.196;25.326;2023-05-02T11:23:21;1.13;;;1.02;;
34805;SDS011;65084;42.196;25.326;2023-05-02T11:25:51;9.85;;;1.10;;
34805;SDS011;65084;42.196;25.326;2023-05-02T11:34:00;4.72;;;1.00;;
34805;SDS011;65084;42.196;25.326;2023-05-02T11:36:27;1.27;;;0.90;;
34805;SDS011;65084;42.196;25.326;2023-05-02T11:38:57;11.90;;;2.33;;
34805;SDS011;65084;42.196;25.326;2023-05-02T11:41:38;3.00;;;1.00;;
34805;SDS011;65084;42.196;25.326;2023-05-02T11:44:05;1.88;;;1.30;;
34805;SDS011;65084;42.196;25.326;2023-05-02T11:46:32;4.13;;;1.00;;
34805;SDS011;65084;42.196;25.326;2023-05-02T11:49:02;8.85;;;1.00;;
34805;SDS011;65084;42.196;25.326;2023-05-02T11:51:29;3.42;;;1.20;;
34805;SDS011;65084;42.196;25.326;2023-05-02T11:53:57;2.03;;;1.10;;
34805;SDS011;65084;42.196;25.326;2023-05-02T11:56:24;2.28;;;1.05;;
34805;SDS011;65084;42.196;25.326;2023-05-02T11:58:58;1.77;;;1.15;;
34805;SDS011;65084;42.196;25.326;2023-05-02T12:01:25;2.15;;;1.13;;
34805;SDS011;65084;42.196;25.326;2023-05-02T12:04:00;6.95;;;1.48;;
34805;SDS011;65084;42.196;25.326;2023-05-02T12:06:27;3.83;;;1.10;;
34805;SDS011;65084;42.196;25.326;2023-05-02T12:09:04;3.65;;;1.10;;
34805;SDS011;65084;42.196;25.326;2023-05-02T12:11:32;1.50;;;1.10;;
34805;SDS011;65084;42.196;25.326;2023-05-02T12:14:01;2.22;;;1.10;;
34805;SDS011;65084;42.196;25.326;2023-05-02T12:16:29;2.00;;;1.27;;
34805;SDS011;65084;42.196;25.326;2023-05-02T12:18:56;6.93;;;1.30;;
34805;SDS011;65084;42.196;25.326;2023-05-02T12:21:25;5.80;;;1.60;;
34805;SDS011;65084;42.196;25.326;2023-05-02T12:23:52;2.80;;;1.30;;
34805;SDS011;65084;42.196;25.326;2023-05-02T12:26:20;6.57;;;1.52;;
34805;SDS011;65084;42.196;25.326;2023-05-02T12:28:49;5.00;;;1.20;;
34805;SDS011;65084;42.196;25.326;2023-05-02T12:31:20;3.53;;;1.35;;
34805;SDS011;65084;42.196;25.326;2023-05-02T12:33:47;1.98;;;1.00;;
34805;SDS011;65084;42.196;25.326;2023-05-02T12:36:16;5.40;;;1.42;;
34805;SDS011;65084;42.196;25.326;2023-05-02T12:38:46;1.33;;;1.10;;
34805;SDS011;65084;42.196;25.326;2023-05-02T12:41:17;2.60;;;0.95;;
34805;SDS011;65084;42.196;25.326;2023-05-02T12:43:46;7.40;;;1.20;;
34805;SDS011;65084;42.196;25.326;2023-05-02T12:46:13;1.35;;;1.25;;
34805;SDS011;65084;42.196;25.326;2023-05-02T12:48:42;7.45;;;1.27;;
34805;SDS011;65084;42.196;25.326;2023-05-02T12:51:19;1.63;;;1.52;;
34805;SDS011;65084;42.196;25.326;2023-05-02T12:53:47;2.55;;;1.95;;
34805;SDS011;65084;42.196;25.326;2023-05-02T12:56:15;1.55;;;1.30;;
34805;SDS011;65084;42.196;25.326;2023-05-02T12:58:43;2.85;;;1.30;;
34805;SDS011;65084;42.196;25.326;2023-05-02T13:01:10;2.15;;;1.30;;
34805;SDS011;65084;42.196;25.326;2023-05-02T13:06:43;1.83;;;1.00;;
34805;SDS011;65084;42.196;25.326;2023-05-02T13:09:10;4.22;;;1.33;;
34805;SDS011;65084;42.196;25.326;2023-05-02T13:11:37;1.67;;;1.20;;
34805;SDS011;65084;42.196;25.326;2023-05-02T13:14:04;13.20;;;2.45;;
34805;SDS011;65084;42.196;25.326;2023-05-02T13:16:32;4.22;;;1.10;;
34805;SDS011;65084;42.196;25.326;2023-05-02T13:19:01;3.20;;;1.58;;
34805;SDS011;65084;42.196;25.326;2023-05-02T13:21:28;5.85;;;1.33;;
34805;SDS011;65084;42.196;25.326;2023-05-02T13:23:57;6.20;;;1.23;;
34805;SDS011;65084;42.196;25.326;2023-05-02T13:26:25;5.45;;;1.10;;
34805;SDS011;65084;42.196;25.326;2023-05-02T13:28:53;5.60;;;1.60;;
34805;SDS011;65084;42.196;25.326;2023-05-02T13:31:20;5.50;;;1.27;;
34805;SDS011;65084;42.196;25.326;2023-05-02T13:33:47;3.97;;;0.90;;
34805;SDS011;65084;42.196;25.326;2023-05-02T13:36:15;2.00;;;1.10;;
34805;SDS011;65084;42.196;25.326;2023-05-02T13:38:42;2.38;;;1.20;;
34805;SDS011;65084;42.196;25.326;2023-05-02T13:41:10;4.72;;;1.40;;
34805;SDS011;65084;42.196;25.326;2023-05-02T13:43:38;4.18;;;1.60;;
34805;SDS011;65084;42.196;25.326;2023-05-02T13:46:05;1.95;;;1.30;;
34805;SDS011;65084;42.196;25.326;2023-05-02T13:48:32;2.50;;;1.50;;
34805;SDS011;65084;42.196;25.326;2023-05-02T13:51:01;2.17;;;1.17;;
34805;SDS011;65084;42.196;25.326;2023-05-02T13:53:29;2.05;;;1.00;;
34805;SDS011;65084;42.196;25.326;2023-05-02T13:55:56;1.50;;;1.10;;
34805;SDS011;65084;42.196;25.326;2023-05-02T13:58:25;3.95;;;1.40;;
34805;SDS011;65084;42.196;25.326;2023-05-02T14:00:52;2.53;;;1.33;;
34805;SDS011;65084;42.196;25.326;2023-05-02T14:03:19;2.50;;;1.00;;
34805;SDS011;65084;42.196;25.326;2023-05-02T14:05:47;5.32;;;1.50;;
34805;SDS011;65084;42.196;25.326;2023-05-02T14:08:14;3.63;;;1.80;;
34805;SDS011;65084;42.196;25.326;2023-05-02T14:10:43;2.53;;;1.60;;
34805;SDS011;65084;42.196;25.326;2023-05-02T14:13:10;5.90;;;1.45;;
34805;SDS011;65084;42.196;25.326;2023-05-02T14:15:39;3.95;;;1.45;;
34805;SDS011;65084;42.196;25.326;2023-05-02T14:18:06;2.53;;;1.30;;
34805;SDS011;65084;42.196;25.326;2023-05-02T14:20:34;1.92;;;1.23;;
34805;SDS011;65084;42.196;25.326;2023-05-02T14:23:01;2.05;;;1.60;;
34805;SDS011;65084;42.196;25.326;2023-05-02T14:25:28;3.45;;;1.45;;
34805;SDS011;65084;42.196;25.326;2023-05-02T14:27:56;1.92;;;1.38;;
34805;SDS011;65084;42.196;25.326;2023-05-02T14:30:23;5.80;;;1.73;;
34805;SDS011;65084;42.196;25.326;2023-05-02T14:32:52;3.83;;;1.30;;
34805;SDS011;65084;42.196;25.326;2023-05-02T14:35:19;4.00;;;1.48;;
34805;SDS011;65084;42.196;25.326;2023-05-02T14:37:46;3.55;;;1.67;;
34805;SDS011;65084;42.196;25.326;2023-05-02T14:40:14;4.50;;;1.33;;
34805;SDS011;65084;42.196;25.326;2023-05-02T14:42:41;1.40;;;1.30;;
34805;SDS011;65084;42.196;25.326;2023-05-02T14:45:09;2.90;;;1.20;;
34805;SDS011;65084;42.196;25.326;2023-05-02T14:47:36;11.85;;;1.92;;
34805;SDS011;65084;42.196;25.326;2023-05-02T14:50:05;10.07;;;2.20;;
34805;SDS011;65084;42.196;25.326;2023-05-02T14:52:33;12.48;;;1.55;;
34805;SDS011;65084;42.196;25.326;2023-05-02T14:55:00;1.88;;;1.30;;
34805;SDS011;65084;42.196;25.326;2023-05-02T14:57:28;4.13;;;1.50;;